createdAt,value
2023-04-21T00:00:07.937Z,11.10
2023-04-21T00:02:54.244Z,15.17
2023-04-21T00:05:42.966Z,11.03
2023-04-21T00:08:29.541Z,10.57
2023-04-21T00:11:16.280Z,10.73
2023-04-21T00:14:02.978Z,22.93
2023-04-21T00:16:52.791Z,16.60
2023-04-21T00:19:39.032Z,11.97
2023-04-21T00:22:25.345Z,12.27
2023-04-21T00:25:11.679Z,12.80
2023-04-21T00:27:58.017Z,8.73
2023-04-21T00:30:44.688Z,10.60
2023-04-21T00:33:32.654Z,12.13
2023-04-21T00:36:19.604Z,13.67
2023-04-21T00:39:05.825Z,15.20
2023-04-21T00:41:52.628Z,13.33
2023-04-21T00:44:38.774Z,17.63
2023-04-21T00:47:25.538Z,22.17
2023-04-21T00:50:13.742Z,13.30
2023-04-21T00:53:00.747Z,16.67
2023-04-21T00:55:47.403Z,10.97
2023-04-21T00:58:34.708Z,8.00
2023-04-21T01:01:20.832Z,7.23
2023-04-21T01:04:09.162Z,7.47
2023-04-21T01:06:56.964Z,8.00
2023-04-21T01:09:43.235Z,6.97
2023-04-21T01:12:29.412Z,7.60
2023-04-21T01:15:16.800Z,7.27
2023-04-21T01:18:03.294Z,5.37
2023-04-21T01:20:50.133Z,6.53
2023-04-21T01:23:38.062Z,6.97
2023-04-21T01:26:24.502Z,5.80
2023-04-21T01:29:10.692Z,7.83
2023-04-21T01:31:57.060Z,5.10
2023-04-21T01:34:44.009Z,6.93
2023-04-21T01:37:31.868Z,7.87
2023-04-21T01:40:19.584Z,8.57
2023-04-21T01:43:06.449Z,5.50
2023-04-21T01:45:53.345Z,6.30
2023-04-21T01:48:40.314Z,11.23
2023-04-21T01:51:27.752Z,11.70
2023-04-21T01:54:14.053Z,19.57
2023-04-21T01:57:02.037Z,9.67
2023-04-21T01:59:48.472Z,8.83
2023-04-21T02:02:35.151Z,8.47
2023-04-21T02:05:21.381Z,13.23
2023-04-21T02:08:07.802Z,8.70
2023-04-21T02:10:54.486Z,8.73
2023-04-21T02:13:41.918Z,12.33
2023-04-21T02:16:28.684Z,12.67
2023-04-21T02:19:15.282Z,11.93
2023-04-21T02:22:01.928Z,13.83
2023-04-21T02:24:48.605Z,12.07
2023-04-21T02:27:35.107Z,11.00
2023-04-21T02:30:22.852Z,11.77
2023-04-21T02:33:09.487Z,9.20
2023-04-21T02:35:55.844Z,8.90
2023-04-21T02:38:42.195Z,8.00
2023-04-21T02:41:28.736Z,8.00
2023-04-21T02:44:15.240Z,6.73
2023-04-21T02:47:02.768Z,9.23
2023-04-21T02:49:49.524Z,7.87
2023-04-21T02:52:37.011Z,6.57
2023-04-21T02:55:23.630Z,7.23
2023-04-21T02:58:10.315Z,8.03
2023-04-21T03:00:57.201Z,9.13
2023-04-21T03:03:44.878Z,7.87
2023-04-21T03:06:32.049Z,7.53
2023-04-21T03:09:18.641Z,6.97
2023-04-21T03:12:05.229Z,6.77
2023-04-21T03:14:51.496Z,8.37
2023-04-21T03:17:38.333Z,8.00
2023-04-21T03:20:26.219Z,8.90
2023-04-21T03:23:12.726Z,9.77
2023-04-21T03:25:59.326Z,6.57
2023-04-21T03:28:45.818Z,10.47
2023-04-21T03:31:32.184Z,13.33
2023-04-21T03:34:18.776Z,9.57
2023-04-21T03:37:06.740Z,8.87
2023-04-21T03:39:53.192Z,31.90
2023-04-21T03:42:39.366Z,37.23
2023-04-21T03:45:25.834Z,13.00
2023-04-21T03:48:12.098Z,13.47
2023-04-21T03:50:58.498Z,12.87
2023-04-21T03:53:46.101Z,12.73
2023-04-21T03:56:32.459Z,12.07
2023-04-21T03:59:19.060Z,10.23
2023-04-21T04:02:05.727Z,8.57
2023-04-21T04:04:52.367Z,11.07
2023-04-21T04:07:38.802Z,13.53
2023-04-21T04:10:26.872Z,9.20
2023-04-21T04:13:13.246Z,14.07
2023-04-21T04:16:03.744Z,9.90
2023-04-21T04:18:51.032Z,9.80
2023-04-21T04:21:37.426Z,8.77
2023-04-21T04:24:23.652Z,7.43
2023-04-21T04:27:14.048Z,9.83
2023-04-21T04:30:00.454Z,9.10
2023-04-21T04:32:47.138Z,10.70
2023-04-21T04:35:33.573Z,19.47
2023-04-21T04:38:26.395Z,14.17
2023-04-21T04:41:13.634Z,14.27
2023-04-21T04:44:01.668Z,14.83
2023-04-21T04:46:49.760Z,23.70
2023-04-21T04:49:36.286Z,25.13
2023-04-21T04:52:22.986Z,19.50
2023-04-21T04:55:09.428Z,15.00
2023-04-21T04:57:55.541Z,14.90
2023-04-21T05:00:43.309Z,12.90
2023-04-21T05:03:30.176Z,17.33
2023-04-21T05:06:16.904Z,16.50
2023-04-21T05:09:05.121Z,16.50
2023-04-21T05:11:51.409Z,15.63
2023-04-21T05:14:38.296Z,24.37
2023-04-21T05:17:26.139Z,14.60
2023-04-21T05:20:12.769Z,11.07
2023-04-21T05:22:59.165Z,14.10
2023-04-21T05:25:45.630Z,11.07
2023-04-21T05:28:32.083Z,9.83
2023-04-21T05:31:18.716Z,9.20
2023-04-21T05:34:06.572Z,10.70
2023-04-21T05:36:53.249Z,31.33
2023-04-21T05:39:39.813Z,18.97
2023-04-21T05:42:26.473Z,12.90
2023-04-21T05:45:13.136Z,14.47
2023-04-21T05:47:59.882Z,13.47
2023-04-21T05:50:47.669Z,11.07
2023-04-21T05:53:34.116Z,10.23
2023-04-21T05:56:20.643Z,11.77
2023-04-21T05:59:08.080Z,10.50
2023-04-21T06:01:54.608Z,9.07
2023-04-21T06:04:41.136Z,14.23
2023-04-21T06:07:29.236Z,11.07
2023-04-21T06:10:16.080Z,12.00
2023-04-21T06:13:02.317Z,13.60
2023-04-21T06:15:48.801Z,18.47
2023-04-21T06:18:35.215Z,10.63
2023-04-21T06:21:21.614Z,15.60
2023-04-21T06:24:10.118Z,13.43
2023-04-21T06:26:56.381Z,9.50
2023-04-21T06:29:43.625Z,9.73
2023-04-21T06:32:30.123Z,7.23
2023-04-21T06:35:17.459Z,7.97
2023-04-21T06:38:03.817Z,8.80
2023-04-21T06:40:51.653Z,5.50
2023-04-21T06:43:38.092Z,12.17
2023-04-21T06:46:24.413Z,8.53
2023-04-21T06:49:11.096Z,9.07
2023-04-21T06:51:57.666Z,6.40
2023-04-21T06:54:43.774Z,6.40
2023-04-21T06:57:31.698Z,10.27
2023-04-21T07:00:18.450Z,5.23
2023-04-21T07:03:05.455Z,6.03
2023-04-21T07:05:51.888Z,5.43
2023-04-21T07:08:38.774Z,7.13
2023-04-21T07:11:24.902Z,5.53
2023-04-21T07:14:12.897Z,6.50
2023-04-21T07:16:59.532Z,6.00
2023-04-21T07:19:46.381Z,7.27
2023-04-21T07:22:34.618Z,6.67
2023-04-21T07:25:21.373Z,6.47
2023-04-21T07:28:07.913Z,5.50
2023-04-21T07:30:56.847Z,8.37
2023-04-21T07:33:43.161Z,5.80
2023-04-21T07:36:31.228Z,5.87
2023-04-21T07:39:18.308Z,27.53
2023-04-21T07:42:08.370Z,6.83
2023-04-21T07:44:56.307Z,5.30
2023-04-21T07:47:44.647Z,6.33
2023-04-21T07:50:31.469Z,5.73
2023-04-21T07:53:18.080Z,5.70
2023-04-21T07:56:04.723Z,6.47
2023-04-21T07:58:51.186Z,6.80
2023-04-21T08:01:37.314Z,6.13
2023-04-21T08:04:25.740Z,7.57
2023-04-21T08:07:13.782Z,6.37
2023-04-21T08:10:00.333Z,6.27
2023-04-21T08:12:46.718Z,8.03
2023-04-21T08:15:33.751Z,6.67
2023-04-21T08:18:22.369Z,7.77
2023-04-21T08:21:10.250Z,5.40
2023-04-21T08:23:56.544Z,6.77
2023-04-21T08:26:43.219Z,6.50
2023-04-21T08:29:29.533Z,6.50
2023-04-21T08:32:16.361Z,5.80
2023-04-21T08:35:02.589Z,7.03
2023-04-21T08:37:51.596Z,7.13
2023-04-21T08:40:39.108Z,6.70
2023-04-21T08:43:25.581Z,6.80
2023-04-21T08:46:13.524Z,6.90
2023-04-21T08:48:59.991Z,5.50
2023-04-21T08:51:46.161Z,6.47
2023-04-21T08:54:34.372Z,5.93
2023-04-21T08:57:20.729Z,4.90
2023-04-21T09:00:08.543Z,7.37
2023-04-21T09:03:00.943Z,6.20
2023-04-21T09:05:58.522Z,6.97
2023-04-21T09:08:53.547Z,6.30
2023-04-21T09:11:41.351Z,6.33
2023-04-21T09:14:32.524Z,6.07
2023-04-21T09:17:19.872Z,8.13
2023-04-21T09:20:14.111Z,6.57
2023-04-21T09:23:00.884Z,5.90
2023-04-21T09:25:47.340Z,6.13
2023-04-21T09:28:35.003Z,7.20
2023-04-21T09:31:23.061Z,5.33
2023-04-21T09:34:18.934Z,4.27
2023-04-21T09:37:06.262Z,5.93
2023-04-21T09:40:04.108Z,6.10
2023-04-21T09:42:53.901Z,6.03
2023-04-21T09:45:41.977Z,7.00
2023-04-21T09:48:30.842Z,10.27
2023-04-21T09:54:28.370Z,5.67
2023-04-21T09:57:17.584Z,9.07
2023-04-21T10:00:06.336Z,12.43
2023-04-21T10:02:55.231Z,16.23
2023-04-21T10:05:43.196Z,10.00
2023-04-21T10:08:30.009Z,9.63
2023-04-21T10:11:16.786Z,8.73
2023-04-21T10:14:03.648Z,9.10
2023-04-21T10:16:57.554Z,9.87
2023-04-21T10:19:51.324Z,9.80
2023-04-21T10:22:39.762Z,23.60
2023-04-21T10:25:30.684Z,24.17
2023-04-21T10:28:19.183Z,10.47
2023-04-21T10:31:17.943Z,8.50
2023-04-21T10:34:21.308Z,7.90
2023-04-21T10:37:19.714Z,8.13
2023-04-21T10:40:10.109Z,6.40
2023-04-21T10:42:57.010Z,14.20
2023-04-21T10:45:46.801Z,10.57
2023-04-21T10:48:37.980Z,8.27
2023-04-21T10:51:24.376Z,9.57
2023-04-21T10:54:14.997Z,8.90
2023-04-21T10:57:01.712Z,10.03
2023-04-21T10:59:49.532Z,5.43
2023-04-21T11:02:39.136Z,7.83
2023-04-21T11:05:36.449Z,8.07
2023-04-21T11:08:22.927Z,6.70
2023-04-21T11:11:10.676Z,8.47
2023-04-21T11:14:00.912Z,7.23
2023-04-21T11:16:47.614Z,6.00
2023-04-21T11:19:34.186Z,7.23
2023-04-21T11:22:21.519Z,10.27
2023-04-21T11:25:17.640Z,6.10
2023-04-21T11:28:06.473Z,6.60
2023-04-21T11:30:52.962Z,5.20
2023-04-21T11:33:39.622Z,5.10
2023-04-21T11:36:25.852Z,6.40
2023-04-21T11:39:13.587Z,6.07
2023-04-21T11:42:00.545Z,5.47
2023-04-21T11:44:48.557Z,4.73
2023-04-21T11:47:34.691Z,6.47
2023-04-21T11:50:31.220Z,4.20
2023-04-21T11:53:17.896Z,4.70
2023-04-21T11:56:04.059Z,5.33
2023-04-21T11:58:51.368Z,4.00
2023-04-21T12:01:45.332Z,4.70
2023-04-21T12:04:34.254Z,6.30
2023-04-21T12:07:23.636Z,3.93
2023-04-21T12:10:11.798Z,3.83
2023-04-21T12:12:58.042Z,3.97
2023-04-21T12:15:46.022Z,6.27
2023-04-21T12:18:36.622Z,3.23
2023-04-21T12:21:23.576Z,3.23
2023-04-21T12:24:09.823Z,5.00
2023-04-21T12:26:56.501Z,5.07
2023-04-21T12:29:42.961Z,5.43
2023-04-21T12:32:29.389Z,3.63
2023-04-21T12:35:17.275Z,3.83
2023-04-21T12:38:03.881Z,3.60
2023-04-21T12:40:50.467Z,4.97
2023-04-21T12:43:36.865Z,4.00
2023-04-21T12:46:23.002Z,3.73
2023-04-21T12:49:11.193Z,4.10
2023-04-21T12:51:59.009Z,4.07
2023-04-21T12:54:45.813Z,4.80
2023-04-21T12:57:33.052Z,4.13
2023-04-21T13:00:19.690Z,3.47
2023-04-21T13:03:06.276Z,5.13
2023-04-21T13:05:52.848Z,3.93
2023-04-21T13:08:40.617Z,7.10
2023-04-21T13:11:27.149Z,4.47
2023-04-21T13:14:14.274Z,3.27
2023-04-21T13:17:00.494Z,4.00
2023-04-21T13:19:47.079Z,2.70
2023-04-21T13:22:33.566Z,3.50
2023-04-21T13:25:21.782Z,6.87
2023-04-21T13:28:08.639Z,4.80
2023-04-21T13:30:55.468Z,2.97
2023-04-21T13:33:42.163Z,4.03
2023-04-21T13:36:29.070Z,4.80
2023-04-21T13:39:15.882Z,4.37
2023-04-21T13:42:04.300Z,3.43
2023-04-21T13:44:51.125Z,4.90
2023-04-21T13:47:37.783Z,4.47
2023-04-21T13:50:24.476Z,5.50
2023-04-21T13:53:11.023Z,4.03
2023-04-21T13:55:59.446Z,4.50
2023-04-21T13:58:47.506Z,4.70
2023-04-21T14:01:33.731Z,3.07
2023-04-21T14:04:21.475Z,2.80
2023-04-21T14:07:08.673Z,4.03
2023-04-21T14:09:54.887Z,5.43
2023-04-21T14:12:41.561Z,6.47
2023-04-21T14:15:29.626Z,4.23
2023-04-21T14:18:16.139Z,8.17
2023-04-21T14:21:02.873Z,4.33
2023-04-21T14:23:49.068Z,4.17
2023-04-21T14:26:36.508Z,4.20
2023-04-21T14:29:23.688Z,4.80
2023-04-21T14:32:11.457Z,3.90
2023-04-21T14:34:59.281Z,7.83
2023-04-21T14:37:45.733Z,3.97
2023-04-21T14:40:32.492Z,8.30
2023-04-21T14:43:18.894Z,3.90
2023-04-21T14:46:05.534Z,8.00
2023-04-21T14:48:53.384Z,9.10
2023-04-21T14:51:42.047Z,4.23
2023-04-21T14:54:28.507Z,5.50
2023-04-21T14:57:19.605Z,5.90
2023-04-21T15:00:07.803Z,3.80
2023-04-21T15:02:54.361Z,5.77
2023-04-21T15:05:42.775Z,4.30
2023-04-21T15:08:29.373Z,5.43
2023-04-21T15:11:15.956Z,6.10
2023-04-21T15:14:02.713Z,8.10
2023-04-21T15:16:49.300Z,4.53
2023-04-21T15:19:41.247Z,3.27
2023-04-21T15:22:29.121Z,9.20
2023-04-21T15:25:16.548Z,5.23
2023-04-21T15:28:03.120Z,3.97
2023-04-21T15:30:50.087Z,4.80
2023-04-21T15:33:36.609Z,5.90
2023-04-21T15:36:23.789Z,3.17
2023-04-21T15:39:14.419Z,6.40
2023-04-21T15:42:01.619Z,6.30
2023-04-21T15:44:48.072Z,6.17
2023-04-21T15:47:34.281Z,6.30
2023-04-21T15:50:22.335Z,5.10
2023-04-21T15:53:08.971Z,6.07
2023-04-21T15:55:57.060Z,3.10
2023-04-21T15:58:43.507Z,5.37
2023-04-21T16:01:30.201Z,5.27
2023-04-21T16:04:16.934Z,4.00
2023-04-21T16:07:03.350Z,2.83
2023-04-21T16:09:49.611Z,4.63
2023-04-21T16:12:37.846Z,3.87
2023-04-21T16:15:25.242Z,6.83
2023-04-21T16:18:12.342Z,19.07
2023-04-21T16:20:59.090Z,79.53
2023-04-21T16:23:45.862Z,14.00
2023-04-21T16:26:33.408Z,7.07
2023-04-21T16:29:21.270Z,5.80
2023-04-21T16:32:08.365Z,6.17
2023-04-21T16:35:08.141Z,12.10
2023-04-21T16:37:54.734Z,16.40
2023-04-21T16:40:41.309Z,21.63
2023-04-21T16:43:28.169Z,35.90
2023-04-21T16:46:16.177Z,60.07
2023-04-21T16:49:03.176Z,26.47
2023-04-21T16:51:49.313Z,39.77
2023-04-21T16:54:36.399Z,22.33
2023-04-21T16:57:24.635Z,13.30
2023-04-21T17:00:11.468Z,15.03
2023-04-21T17:02:59.228Z,7.60
2023-04-21T17:05:45.796Z,44.87
2023-04-21T17:08:31.894Z,68.63
2023-04-21T17:11:18.000Z,33.87
2023-04-21T17:14:04.756Z,48.77
2023-04-21T17:16:51.713Z,36.80
2023-04-21T17:19:40.339Z,23.87
2023-04-21T17:22:26.812Z,12.97
2023-04-21T17:25:13.774Z,14.40
2023-04-21T17:28:00.422Z,9.27
2023-04-21T17:30:47.236Z,75.13
2023-04-21T17:33:33.879Z,36.43
2023-04-21T17:36:21.749Z,52.47
2023-04-21T17:39:08.412Z,18.73
2023-04-21T17:41:54.961Z,10.93
2023-04-21T17:44:42.084Z,13.40
2023-04-21T17:47:28.785Z,13.27
2023-04-21T17:50:15.510Z,47.47
2023-04-21T17:53:03.802Z,24.30
2023-04-21T17:55:50.249Z,19.40
2023-04-21T17:58:37.082Z,8.10
2023-04-21T18:01:23.610Z,5.90
2023-04-21T18:04:10.409Z,9.03
2023-04-21T18:06:57.037Z,9.17
2023-04-21T18:09:48.895Z,13.27
2023-04-21T18:12:35.744Z,11.63
2023-04-21T18:15:22.242Z,7.20
2023-04-21T18:18:08.681Z,7.20
2023-04-21T18:20:55.172Z,7.57
2023-04-21T18:23:41.376Z,7.47
2023-04-21T18:26:29.040Z,17.43
2023-04-21T18:29:17.836Z,8.83
2023-04-21T18:32:04.510Z,18.53
2023-04-21T18:34:51.351Z,10.43
2023-04-21T18:37:38.091Z,13.80
2023-04-21T18:40:24.659Z,12.80
2023-04-21T18:43:12.591Z,10.90
2023-04-21T18:45:59.242Z,16.17
2023-04-21T18:48:45.688Z,13.03
2023-04-21T18:51:32.522Z,9.73
2023-04-21T18:54:18.883Z,7.13
2023-04-21T18:57:06.080Z,7.10
2023-04-21T18:59:53.665Z,9.17
2023-04-21T19:02:40.878Z,11.63
2023-04-21T19:05:29.795Z,7.50
2023-04-21T19:08:26.866Z,9.23
2023-04-21T19:11:20.787Z,10.67
2023-04-21T19:14:07.753Z,7.10
2023-04-21T19:16:55.671Z,11.33
2023-04-21T19:19:42.440Z,8.33
2023-04-21T19:22:31.090Z,7.00
2023-04-21T19:25:17.818Z,10.77
2023-04-21T19:28:04.410Z,10.77
2023-04-21T19:30:51.095Z,11.20
2023-04-21T19:33:39.354Z,12.73
2023-04-21T19:36:26.289Z,11.87
2023-04-21T19:39:13.468Z,10.53
2023-04-21T19:41:59.894Z,16.93
2023-04-21T19:44:46.417Z,19.17
2023-04-21T19:47:36.314Z,11.50
2023-04-21T19:50:24.052Z,19.20
2023-04-21T19:53:14.547Z,28.97
2023-04-21T19:56:01.389Z,23.57
2023-04-21T19:58:47.765Z,23.87
2023-04-21T20:01:34.422Z,28.07
2023-04-21T20:04:21.164Z,21.00
2023-04-21T20:07:09.102Z,25.83
2023-04-21T20:09:55.716Z,19.43
2023-04-21T20:12:41.932Z,24.13
2023-04-21T20:15:28.498Z,20.43
2023-04-21T20:18:14.665Z,14.40
2023-04-21T20:21:01.113Z,17.90
2023-04-21T20:23:48.868Z,13.10
2023-04-21T20:26:35.675Z,11.03
2023-04-21T20:29:21.897Z,11.20
2023-04-21T20:32:08.807Z,12.97
2023-04-21T20:34:55.375Z,9.63
2023-04-21T20:37:42.871Z,18.37
2023-04-21T20:40:31.045Z,23.93
2023-04-21T20:43:18.989Z,29.03
2023-04-21T20:46:05.682Z,51.67
2023-04-21T20:48:52.708Z,46.37
2023-04-21T20:51:41.469Z,28.73
2023-04-21T20:54:28.207Z,30.53
2023-04-21T20:57:15.962Z,20.00
2023-04-21T21:00:04.876Z,11.87
2023-04-21T21:02:51.484Z,9.17
2023-04-21T21:05:38.299Z,7.50
2023-04-21T21:08:24.503Z,8.27
2023-04-21T21:11:11.589Z,8.53
2023-04-21T21:13:59.714Z,9.97
2023-04-21T21:16:46.281Z,10.30
2023-04-21T21:19:32.928Z,8.63
2023-04-21T21:22:19.213Z,10.83
2023-04-21T21:25:05.754Z,20.10
2023-04-21T21:27:52.504Z,21.97
2023-04-21T21:30:40.526Z,13.63
2023-04-21T21:33:26.882Z,22.17
2023-04-21T21:36:13.162Z,22.40
2023-04-21T21:38:59.977Z,24.37
2023-04-21T21:41:46.276Z,12.03
2023-04-21T21:44:32.996Z,11.33
2023-04-21T21:47:20.925Z,10.17
2023-04-21T21:50:08.451Z,17.00
2023-04-21T21:52:54.696Z,11.47
2023-04-21T21:55:41.386Z,16.77
2023-04-21T21:58:27.692Z,8.07
2023-04-21T22:01:18.234Z,9.77
2023-04-21T22:04:07.660Z,12.00
2023-04-21T22:06:54.459Z,17.50
2023-04-21T22:09:41.572Z,17.70
2023-04-21T22:12:28.502Z,10.03
2023-04-21T22:15:14.608Z,9.37
2023-04-21T22:18:01.428Z,6.17
2023-04-21T22:20:49.652Z,5.37
2023-04-21T22:23:36.343Z,6.03
2023-04-21T22:26:22.766Z,5.30
2023-04-21T22:29:09.405Z,5.10
2023-04-21T22:31:55.604Z,5.60
2023-04-21T22:34:42.538Z,6.90
2023-04-21T22:37:30.653Z,7.23
2023-04-21T22:40:17.199Z,6.77
2023-04-21T22:43:03.892Z,5.87
2023-04-21T22:45:50.475Z,7.83
2023-04-21T22:48:38.404Z,8.53
2023-04-21T22:51:25.027Z,11.23
2023-04-21T22:54:12.480Z,6.80
2023-04-21T22:56:59.043Z,8.70
2023-04-21T22:59:45.719Z,7.43
2023-04-21T23:02:32.435Z,6.77
2023-04-21T23:05:18.859Z,4.90
2023-04-21T23:08:05.753Z,6.70
2023-04-21T23:10:53.824Z,7.03
2023-04-21T23:13:40.735Z,11.43
2023-04-21T23:16:27.102Z,10.90
2023-04-21T23:19:13.649Z,15.63
2023-04-21T23:22:00.250Z,12.60
2023-04-21T23:24:46.832Z,14.47
2023-04-21T23:27:34.490Z,14.17
2023-04-21T23:30:21.110Z,11.93
2023-04-21T23:33:07.456Z,9.40
2023-04-21T23:35:54.910Z,7.23
2023-04-21T23:38:41.474Z,4.30
2023-04-21T23:41:28.230Z,6.27
2023-04-21T23:44:15.750Z,7.13
2023-04-21T23:47:02.464Z,9.50
2023-04-21T23:49:48.725Z,19.30
2023-04-21T23:52:35.306Z,18.43
2023-04-21T23:55:22.039Z,11.63
2023-04-21T23:58:08.495Z,8.60
